sensor_id;sensor_type;location;lat;lon;timestamp;P1;durP1;ratioP1;P2;durP2;ratioP2
76727;SDS011;65652;53.132;18.026;2023-05-09T00:01:23;12.70;;;6.30;;
76727;SDS011;65652;53.132;18.026;2023-05-09T00:03:50;11.90;;;5.90;;
76727;SDS011;65652;53.132;18.026;2023-05-09T00:06:17;13.30;;;5.80;;
76727;SDS011;65652;53.132;18.026;2023-05-09T00:08:45;13.30;;;5.80;;
76727;SDS011;65652;53.132;18.026;2023-05-09T00:11:12;11.50;;;5.80;;
76727;SDS011;65652;53.132;18.026;2023-05-09T00:13:39;12.60;;;6.80;;
76727;SDS011;65652;53.132;18.026;2023-05-09T00:16:07;13.40;;;6.20;;
76727;SDS011;65652;53.132;18.026;2023-05-09T00:18:35;11.70;;;6.20;;
76727;SDS011;65652;53.132;18.026;2023-05-09T00:21:02;12.20;;;6.40;;
76727;SDS011;65652;53.132;18.026;2023-05-09T00:23:29;11.80;;;7.10;;
76727;SDS011;65652;53.132;18.026;2023-05-09T00:25:57;14.90;;;6.70;;
76727;SDS011;65652;53.132;18.026;2023-05-09T00:28:24;19.00;;;7.00;;
76727;SDS011;65652;53.132;18.026;2023-05-09T00:30:51;12.80;;;6.90;;
76727;SDS011;65652;53.132;18.026;2023-05-09T00:33:19;11.00;;;6.30;;
76727;SDS011;65652;53.132;18.026;2023-05-09T00:35:46;12.70;;;7.00;;
76727;SDS011;65652;53.132;18.026;2023-05-09T00:38:13;14.40;;;7.10;;
76727;SDS011;65652;53.132;18.026;2023-05-09T00:40:40;14.00;;;7.70;;
76727;SDS011;65652;53.132;18.026;2023-05-09T00:43:07;12.70;;;7.00;;
76727;SDS011;65652;53.132;18.026;2023-05-09T00:45:33;15.20;;;7.10;;
76727;SDS011;65652;53.132;18.026;2023-05-09T00:48:01;15.30;;;7.90;;
76727;SDS011;65652;53.132;18.026;2023-05-09T00:50:28;17.20;;;8.50;;
76727;SDS011;65652;53.132;18.026;2023-05-09T00:52:55;16.00;;;7.80;;
76727;SDS011;65652;53.132;18.026;2023-05-09T00:55:22;14.50;;;8.20;;
76727;SDS011;65652;53.132;18.026;2023-05-09T00:57:49;15.00;;;8.00;;
76727;SDS011;65652;53.132;18.026;2023-05-09T01:00:16;13.90;;;6.80;;
76727;SDS011;65652;53.132;18.026;2023-05-09T01:02:45;16.30;;;8.30;;
76727;SDS011;65652;53.132;18.026;2023-05-09T01:05:15;16.80;;;8.60;;
76727;SDS011;65652;53.132;18.026;2023-05-09T01:13:03;17.30;;;8.90;;
76727;SDS011;65652;53.132;18.026;2023-05-09T01:15:36;18.20;;;9.40;;
76727;SDS011;65652;53.132;18.026;2023-05-09T01:20:50;15.60;;;8.60;;
76727;SDS011;65652;53.132;18.026;2023-05-09T01:26:18;17.70;;;9.10;;
76727;SDS011;65652;53.132;18.026;2023-05-09T01:31:40;17.60;;;9.10;;
76727;SDS011;65652;53.132;18.026;2023-05-09T01:34:10;17.90;;;9.30;;
76727;SDS011;65652;53.132;18.026;2023-05-09T01:36:40;17.80;;;9.10;;
76727;SDS011;65652;53.132;18.026;2023-05-09T01:39:12;15.90;;;9.00;;
76727;SDS011;65652;53.132;18.026;2023-05-09T01:41:39;16.00;;;8.10;;
76727;SDS011;65652;53.132;18.026;2023-05-09T01:44:07;18.70;;;8.90;;
76727;SDS011;65652;53.132;18.026;2023-05-09T01:46:36;16.00;;;8.60;;
76727;SDS011;65652;53.132;18.026;2023-05-09T01:49:05;15.80;;;9.20;;
76727;SDS011;65652;53.132;18.026;2023-05-09T01:51:35;17.80;;;9.40;;
76727;SDS011;65652;53.132;18.026;2023-05-09T01:54:05;17.70;;;8.80;;
76727;SDS011;65652;53.132;18.026;2023-05-09T01:56:32;19.70;;;9.70;;
76727;SDS011;65652;53.132;18.026;2023-05-09T01:59:01;16.70;;;9.00;;
76727;SDS011;65652;53.132;18.026;2023-05-09T02:01:32;18.30;;;9.90;;
76727;SDS011;65652;53.132;18.026;2023-05-09T02:04:00;16.70;;;9.50;;
76727;SDS011;65652;53.132;18.026;2023-05-09T02:06:29;16.60;;;9.70;;
76727;SDS011;65652;53.132;18.026;2023-05-09T02:08:58;19.40;;;10.30;;
76727;SDS011;65652;53.132;18.026;2023-05-09T02:11:25;19.00;;;9.00;;
76727;SDS011;65652;53.132;18.026;2023-05-09T02:13:52;18.10;;;9.60;;
76727;SDS011;65652;53.132;18.026;2023-05-09T02:16:19;18.50;;;9.60;;
76727;SDS011;65652;53.132;18.026;2023-05-09T02:18:46;16.10;;;9.30;;
76727;SDS011;65652;53.132;18.026;2023-05-09T02:21:14;17.30;;;9.00;;
76727;SDS011;65652;53.132;18.026;2023-05-09T02:23:41;18.00;;;9.50;;
76727;SDS011;65652;53.132;18.026;2023-05-09T02:26:08;18.40;;;9.50;;
76727;SDS011;65652;53.132;18.026;2023-05-09T02:28:34;18.80;;;9.50;;
76727;SDS011;65652;53.132;18.026;2023-05-09T02:31:04;18.70;;;9.10;;
76727;SDS011;65652;53.132;18.026;2023-05-09T02:33:34;18.40;;;9.80;;
76727;SDS011;65652;53.132;18.026;2023-05-09T02:36:02;21.50;;;10.50;;
76727;SDS011;65652;53.132;18.026;2023-05-09T02:38:31;22.20;;;10.80;;
76727;SDS011;65652;53.132;18.026;2023-05-09T02:40:58;18.60;;;9.80;;
76727;SDS011;65652;53.132;18.026;2023-05-09T02:43:26;16.30;;;9.10;;
76727;SDS011;65652;53.132;18.026;2023-05-09T02:45:55;17.90;;;9.60;;
76727;SDS011;65652;53.132;18.026;2023-05-09T02:48:21;16.40;;;9.20;;
76727;SDS011;65652;53.132;18.026;2023-05-09T02:50:48;17.30;;;9.50;;
76727;SDS011;65652;53.132;18.026;2023-05-09T02:53:16;16.00;;;9.00;;
76727;SDS011;65652;53.132;18.026;2023-05-09T02:55:42;19.20;;;9.00;;
76727;SDS011;65652;53.132;18.026;2023-05-09T02:58:09;17.60;;;8.90;;
76727;SDS011;65652;53.132;18.026;2023-05-09T03:00:36;20.40;;;9.40;;
76727;SDS011;65652;53.132;18.026;2023-05-09T03:03:04;17.60;;;9.30;;
76727;SDS011;65652;53.132;18.026;2023-05-09T03:05:31;19.90;;;11.30;;
76727;SDS011;65652;53.132;18.026;2023-05-09T03:07:58;18.20;;;10.20;;
76727;SDS011;65652;53.132;18.026;2023-05-09T03:10:26;18.80;;;10.40;;
76727;SDS011;65652;53.132;18.026;2023-05-09T03:12:53;20.70;;;9.80;;
76727;SDS011;65652;53.132;18.026;2023-05-09T03:15:20;22.60;;;10.30;;
76727;SDS011;65652;53.132;18.026;2023-05-09T03:17:47;23.10;;;11.40;;
76727;SDS011;65652;53.132;18.026;2023-05-09T03:20:14;17.50;;;9.60;;
76727;SDS011;65652;53.132;18.026;2023-05-09T03:22:41;21.60;;;10.20;;
76727;SDS011;65652;53.132;18.026;2023-05-09T03:25:09;20.00;;;11.00;;
76727;SDS011;65652;53.132;18.026;2023-05-09T03:27:36;21.70;;;10.40;;
76727;SDS011;65652;53.132;18.026;2023-05-09T03:30:04;17.80;;;9.60;;
76727;SDS011;65652;53.132;18.026;2023-05-09T03:32:32;15.70;;;9.40;;
76727;SDS011;65652;53.132;18.026;2023-05-09T03:34:59;20.30;;;9.80;;
76727;SDS011;65652;53.132;18.026;2023-05-09T03:37:26;19.20;;;9.30;;
76727;SDS011;65652;53.132;18.026;2023-05-09T03:39:53;17.70;;;9.20;;
76727;SDS011;65652;53.132;18.026;2023-05-09T03:42:20;18.50;;;9.40;;
76727;SDS011;65652;53.132;18.026;2023-05-09T03:44:49;20.20;;;12.10;;
76727;SDS011;65652;53.132;18.026;2023-05-09T03:47:16;17.50;;;9.50;;
76727;SDS011;65652;53.132;18.026;2023-05-09T03:49:43;21.70;;;9.60;;
76727;SDS011;65652;53.132;18.026;2023-05-09T03:52:13;23.40;;;10.70;;
76727;SDS011;65652;53.132;18.026;2023-05-09T03:54:40;18.80;;;10.50;;
76727;SDS011;65652;53.132;18.026;2023-05-09T03:57:06;23.70;;;11.00;;
76727;SDS011;65652;53.132;18.026;2023-05-09T03:59:34;19.20;;;10.10;;
76727;SDS011;65652;53.132;18.026;2023-05-09T04:02:01;21.40;;;10.30;;
76727;SDS011;65652;53.132;18.026;2023-05-09T04:04:29;22.30;;;11.30;;
76727;SDS011;65652;53.132;18.026;2023-05-09T04:06:56;21.50;;;10.80;;
76727;SDS011;65652;53.132;18.026;2023-05-09T04:09:23;20.90;;;11.20;;
76727;SDS011;65652;53.132;18.026;2023-05-09T04:11:50;23.30;;;12.60;;
76727;SDS011;65652;53.132;18.026;2023-05-09T04:14:17;23.10;;;12.30;;
76727;SDS011;65652;53.132;18.026;2023-05-09T04:16:44;23.80;;;13.60;;
76727;SDS011;65652;53.132;18.026;2023-05-09T04:19:11;27.30;;;13.50;;
76727;SDS011;65652;53.132;18.026;2023-05-09T04:21:38;24.00;;;12.40;;
76727;SDS011;65652;53.132;18.026;2023-05-09T04:24:05;25.50;;;13.60;;
76727;SDS011;65652;53.132;18.026;2023-05-09T04:26:39;23.30;;;13.20;;
76727;SDS011;65652;53.132;18.026;2023-05-09T04:29:08;25.40;;;13.50;;
76727;SDS011;65652;53.132;18.026;2023-05-09T04:31:35;26.10;;;13.20;;
76727;SDS011;65652;53.132;18.026;2023-05-09T04:34:02;29.90;;;14.90;;
76727;SDS011;65652;53.132;18.026;2023-05-09T04:36:31;25.80;;;13.90;;
76727;SDS011;65652;53.132;18.026;2023-05-09T04:38:59;27.20;;;13.80;;
76727;SDS011;65652;53.132;18.026;2023-05-09T04:41:26;28.50;;;14.40;;
76727;SDS011;65652;53.132;18.026;2023-05-09T04:43:54;25.60;;;14.10;;
76727;SDS011;65652;53.132;18.026;2023-05-09T04:46:21;25.30;;;13.60;;
76727;SDS011;65652;53.132;18.026;2023-05-09T04:48:48;27.10;;;14.30;;
76727;SDS011;65652;53.132;18.026;2023-05-09T04:51:15;25.50;;;13.80;;
76727;SDS011;65652;53.132;18.026;2023-05-09T04:53:42;26.00;;;14.20;;
76727;SDS011;65652;53.132;18.026;2023-05-09T04:56:09;25.20;;;13.50;;
76727;SDS011;65652;53.132;18.026;2023-05-09T04:58:36;26.50;;;14.10;;
76727;SDS011;65652;53.132;18.026;2023-05-09T05:01:09;24.20;;;13.60;;
76727;SDS011;65652;53.132;18.026;2023-05-09T05:03:36;22.80;;;12.60;;
76727;SDS011;65652;53.132;18.026;2023-05-09T05:06:03;25.10;;;12.90;;
76727;SDS011;65652;53.132;18.026;2023-05-09T05:08:32;22.40;;;13.20;;
76727;SDS011;65652;53.132;18.026;2023-05-09T05:10:59;24.00;;;12.50;;
76727;SDS011;65652;53.132;18.026;2023-05-09T05:13:25;23.70;;;13.40;;
76727;SDS011;65652;53.132;18.026;2023-05-09T05:15:55;24.30;;;12.40;;
76727;SDS011;65652;53.132;18.026;2023-05-09T05:18:23;25.50;;;12.70;;
76727;SDS011;65652;53.132;18.026;2023-05-09T05:20:50;23.30;;;12.10;;
76727;SDS011;65652;53.132;18.026;2023-05-09T05:23:17;27.60;;;12.90;;
76727;SDS011;65652;53.132;18.026;2023-05-09T05:25:45;26.20;;;14.40;;
76727;SDS011;65652;53.132;18.026;2023-05-09T05:28:12;25.60;;;13.50;;
76727;SDS011;65652;53.132;18.026;2023-05-09T05:30:40;22.90;;;12.40;;
76727;SDS011;65652;53.132;18.026;2023-05-09T05:33:07;20.10;;;11.50;;
76727;SDS011;65652;53.132;18.026;2023-05-09T05:35:33;19.20;;;11.10;;
76727;SDS011;65652;53.132;18.026;2023-05-09T05:38:01;21.40;;;11.00;;
76727;SDS011;65652;53.132;18.026;2023-05-09T05:40:28;24.10;;;11.10;;
76727;SDS011;65652;53.132;18.026;2023-05-09T05:42:55;17.90;;;10.00;;
76727;SDS011;65652;53.132;18.026;2023-05-09T05:45:22;18.70;;;10.90;;
76727;SDS011;65652;53.132;18.026;2023-05-09T05:47:51;19.30;;;9.90;;
76727;SDS011;65652;53.132;18.026;2023-05-09T05:50:18;18.70;;;9.90;;
76727;SDS011;65652;53.132;18.026;2023-05-09T05:52:45;17.70;;;9.50;;
76727;SDS011;65652;53.132;18.026;2023-05-09T05:55:14;19.50;;;9.00;;
76727;SDS011;65652;53.132;18.026;2023-05-09T05:57:41;17.80;;;9.80;;
76727;SDS011;65652;53.132;18.026;2023-05-09T06:00:09;19.80;;;10.90;;
76727;SDS011;65652;53.132;18.026;2023-05-09T06:02:43;15.90;;;9.10;;
76727;SDS011;65652;53.132;18.026;2023-05-09T06:05:11;16.70;;;9.40;;
76727;SDS011;65652;53.132;18.026;2023-05-09T06:07:38;16.10;;;8.70;;
76727;SDS011;65652;53.132;18.026;2023-05-09T06:10:09;17.70;;;9.30;;
76727;SDS011;65652;53.132;18.026;2023-05-09T06:12:36;13.60;;;8.20;;
76727;SDS011;65652;53.132;18.026;2023-05-09T06:15:04;16.40;;;8.60;;
76727;SDS011;65652;53.132;18.026;2023-05-09T06:17:33;15.00;;;7.70;;
76727;SDS011;65652;53.132;18.026;2023-05-09T06:20:01;13.10;;;7.60;;
76727;SDS011;65652;53.132;18.026;2023-05-09T06:22:29;14.50;;;7.80;;
76727;SDS011;65652;53.132;18.026;2023-05-09T06:24:55;15.60;;;7.80;;
76727;SDS011;65652;53.132;18.026;2023-05-09T06:27:22;13.10;;;7.50;;
76727;SDS011;65652;53.132;18.026;2023-05-09T06:29:49;16.90;;;7.90;;
76727;SDS011;65652;53.132;18.026;2023-05-09T06:32:18;17.00;;;8.20;;
76727;SDS011;65652;53.132;18.026;2023-05-09T06:34:45;14.00;;;7.30;;
76727;SDS011;65652;53.132;18.026;2023-05-09T06:37:12;13.50;;;6.80;;
76727;SDS011;65652;53.132;18.026;2023-05-09T06:39:38;14.10;;;7.10;;
76727;SDS011;65652;53.132;18.026;2023-05-09T06:42:05;11.20;;;6.60;;
76727;SDS011;65652;53.132;18.026;2023-05-09T06:44:36;13.40;;;7.10;;
76727;SDS011;65652;53.132;18.026;2023-05-09T06:47:03;11.50;;;6.40;;
76727;SDS011;65652;53.132;18.026;2023-05-09T06:49:30;12.60;;;7.50;;
76727;SDS011;65652;53.132;18.026;2023-05-09T06:51:57;12.60;;;6.10;;
76727;SDS011;65652;53.132;18.026;2023-05-09T06:54:24;10.60;;;5.90;;
76727;SDS011;65652;53.132;18.026;2023-05-09T06:56:51;11.10;;;5.50;;
76727;SDS011;65652;53.132;18.026;2023-05-09T06:59:18;10.70;;;6.00;;
76727;SDS011;65652;53.132;18.026;2023-05-09T07:01:45;11.50;;;5.20;;
76727;SDS011;65652;53.132;18.026;2023-05-09T07:04:12;10.20;;;5.40;;
76727;SDS011;65652;53.132;18.026;2023-05-09T07:06:38;9.70;;;5.10;;
76727;SDS011;65652;53.132;18.026;2023-05-09T07:09:05;9.80;;;4.70;;
76727;SDS011;65652;53.132;18.026;2023-05-09T07:11:35;9.60;;;4.70;;
76727;SDS011;65652;53.132;18.026;2023-05-09T07:14:03;8.80;;;4.20;;
76727;SDS011;65652;53.132;18.026;2023-05-09T07:16:29;8.10;;;4.20;;
76727;SDS011;65652;53.132;18.026;2023-05-09T07:18:56;9.80;;;4.40;;
76727;SDS011;65652;53.132;18.026;2023-05-09T07:21:23;8.00;;;3.80;;
76727;SDS011;65652;53.132;18.026;2023-05-09T07:23:50;8.70;;;4.20;;
76727;SDS011;65652;53.132;18.026;2023-05-09T07:26:17;9.60;;;3.80;;
76727;SDS011;65652;53.132;18.026;2023-05-09T07:28:44;7.80;;;3.80;;
76727;SDS011;65652;53.132;18.026;2023-05-09T07:31:11;8.30;;;3.80;;
76727;SDS011;65652;53.132;18.026;2023-05-09T07:33:38;6.00;;;2.90;;
76727;SDS011;65652;53.132;18.026;2023-05-09T07:36:05;9.00;;;3.70;;
76727;SDS011;65652;53.132;18.026;2023-05-09T07:38:32;9.00;;;3.60;;
76727;SDS011;65652;53.132;18.026;2023-05-09T07:40:59;7.40;;;3.50;;
76727;SDS011;65652;53.132;18.026;2023-05-09T07:43:25;6.00;;;2.90;;
76727;SDS011;65652;53.132;18.026;2023-05-09T07:45:52;5.90;;;2.80;;
76727;SDS011;65652;53.132;18.026;2023-05-09T07:48:19;5.60;;;1.90;;
76727;SDS011;65652;53.132;18.026;2023-05-09T07:50:46;5.10;;;1.60;;
76727;SDS011;65652;53.132;18.026;2023-05-09T07:53:13;5.00;;;1.90;;
76727;SDS011;65652;53.132;18.026;2023-05-09T07:55:40;6.20;;;2.20;;
76727;SDS011;65652;53.132;18.026;2023-05-09T07:58:07;5.20;;;1.90;;
76727;SDS011;65652;53.132;18.026;2023-05-09T08:00:33;5.80;;;2.10;;
76727;SDS011;65652;53.132;18.026;2023-05-09T08:03:00;4.30;;;1.70;;
76727;SDS011;65652;53.132;18.026;2023-05-09T08:05:27;5.00;;;2.10;;
76727;SDS011;65652;53.132;18.026;2023-05-09T08:07:54;5.80;;;2.00;;
76727;SDS011;65652;53.132;18.026;2023-05-09T08:10:21;5.00;;;2.00;;
76727;SDS011;65652;53.132;18.026;2023-05-09T08:15:15;5.20;;;2.10;;
76727;SDS011;65652;53.132;18.026;2023-05-09T08:17:42;5.50;;;2.30;;
76727;SDS011;65652;53.132;18.026;2023-05-09T08:20:09;4.60;;;2.20;;
76727;SDS011;65652;53.132;18.026;2023-05-09T08:22:40;5.90;;;2.20;;
76727;SDS011;65652;53.132;18.026;2023-05-09T08:25:07;6.10;;;2.10;;
76727;SDS011;65652;53.132;18.026;2023-05-09T08:27:34;5.20;;;2.40;;
76727;SDS011;65652;53.132;18.026;2023-05-09T08:30:01;5.90;;;2.90;;
76727;SDS011;65652;53.132;18.026;2023-05-09T08:32:28;5.20;;;2.00;;
76727;SDS011;65652;53.132;18.026;2023-05-09T08:34:55;4.60;;;2.00;;
76727;SDS011;65652;53.132;18.026;2023-05-09T08:37:22;5.50;;;2.20;;
76727;SDS011;65652;53.132;18.026;2023-05-09T08:39:49;7.00;;;2.20;;
76727;SDS011;65652;53.132;18.026;2023-05-09T08:42:15;6.20;;;2.30;;
76727;SDS011;65652;53.132;18.026;2023-05-09T08:44:46;5.80;;;2.40;;
76727;SDS011;65652;53.132;18.026;2023-05-09T08:47:12;5.10;;;2.00;;
76727;SDS011;65652;53.132;18.026;2023-05-09T08:49:41;4.80;;;2.30;;
76727;SDS011;65652;53.132;18.026;2023-05-09T08:52:08;4.30;;;2.10;;
76727;SDS011;65652;53.132;18.026;2023-05-09T08:54:36;6.00;;;2.10;;
76727;SDS011;65652;53.132;18.026;2023-05-09T08:57:04;4.20;;;1.70;;
76727;SDS011;65652;53.132;18.026;2023-05-09T08:59:31;7.40;;;2.20;;
76727;SDS011;65652;53.132;18.026;2023-05-09T09:02:04;7.00;;;1.90;;
76727;SDS011;65652;53.132;18.026;2023-05-09T09:04:32;5.70;;;2.10;;
76727;SDS011;65652;53.132;18.026;2023-05-09T09:06:59;4.80;;;2.00;;
76727;SDS011;65652;53.132;18.026;2023-05-09T09:09:29;5.10;;;2.20;;
76727;SDS011;65652;53.132;18.026;2023-05-09T09:11:56;5.90;;;2.40;;
76727;SDS011;65652;53.132;18.026;2023-05-09T09:14:23;4.30;;;1.80;;
76727;SDS011;65652;53.132;18.026;2023-05-09T09:16:53;5.30;;;1.90;;
76727;SDS011;65652;53.132;18.026;2023-05-09T09:19:24;6.00;;;1.80;;
76727;SDS011;65652;53.132;18.026;2023-05-09T09:21:57;6.50;;;2.20;;
76727;SDS011;65652;53.132;18.026;2023-05-09T09:24:25;4.30;;;1.90;;
76727;SDS011;65652;53.132;18.026;2023-05-09T09:26:52;5.50;;;1.90;;
76727;SDS011;65652;53.132;18.026;2023-05-09T09:29:19;6.80;;;1.90;;
76727;SDS011;65652;53.132;18.026;2023-05-09T09:31:47;5.20;;;2.30;;
76727;SDS011;65652;53.132;18.026;2023-05-09T09:34:19;4.60;;;2.20;;
76727;SDS011;65652;53.132;18.026;2023-05-09T09:36:48;5.30;;;1.90;;
76727;SDS011;65652;53.132;18.026;2023-05-09T09:39:15;5.50;;;1.90;;
76727;SDS011;65652;53.132;18.026;2023-05-09T09:41:42;5.70;;;2.40;;
76727;SDS011;65652;53.132;18.026;2023-05-09T09:44:16;6.00;;;2.30;;
76727;SDS011;65652;53.132;18.026;2023-05-09T09:46:48;5.20;;;2.40;;
76727;SDS011;65652;53.132;18.026;2023-05-09T09:49:21;5.20;;;2.70;;
76727;SDS011;65652;53.132;18.026;2023-05-09T09:51:50;5.60;;;2.60;;
76727;SDS011;65652;53.132;18.026;2023-05-09T09:54:18;5.90;;;2.40;;
76727;SDS011;65652;53.132;18.026;2023-05-09T09:56:47;4.70;;;2.10;;
76727;SDS011;65652;53.132;18.026;2023-05-09T09:59:18;5.40;;;2.20;;
76727;SDS011;65652;53.132;18.026;2023-05-09T10:01:59;5.60;;;2.00;;
76727;SDS011;65652;53.132;18.026;2023-05-09T10:04:29;6.20;;;2.00;;
76727;SDS011;65652;53.132;18.026;2023-05-09T10:06:58;4.40;;;1.90;;
76727;SDS011;65652;53.132;18.026;2023-05-09T10:09:26;4.20;;;2.10;;
76727;SDS011;65652;53.132;18.026;2023-05-09T10:11:54;5.70;;;1.80;;
76727;SDS011;65652;53.132;18.026;2023-05-09T10:14:22;6.00;;;2.30;;
76727;SDS011;65652;53.132;18.026;2023-05-09T10:16:53;6.10;;;2.30;;
76727;SDS011;65652;53.132;18.026;2023-05-09T10:19:22;6.80;;;2.20;;
76727;SDS011;65652;53.132;18.026;2023-05-09T10:21:53;5.40;;;2.00;;
76727;SDS011;65652;53.132;18.026;2023-05-09T10:25:09;4.70;;;2.00;;
76727;SDS011;65652;53.132;18.026;2023-05-09T10:27:24;5.90;;;2.30;;
76727;SDS011;65652;53.132;18.026;2023-05-09T10:30:05;4.10;;;1.70;;
76727;SDS011;65652;53.132;18.026;2023-05-09T10:35:44;7.60;;;1.90;;
76727;SDS011;65652;53.132;18.026;2023-05-09T10:38:12;4.80;;;2.10;;
76727;SDS011;65652;53.132;18.026;2023-05-09T10:40:39;5.40;;;2.00;;
76727;SDS011;65652;53.132;18.026;2023-05-09T10:43:07;5.50;;;2.00;;
76727;SDS011;65652;53.132;18.026;2023-05-09T10:45:34;5.10;;;1.90;;
76727;SDS011;65652;53.132;18.026;2023-05-09T10:48:03;5.50;;;1.90;;
76727;SDS011;65652;53.132;18.026;2023-05-09T10:50:32;5.20;;;2.00;;
76727;SDS011;65652;53.132;18.026;2023-05-09T10:55:34;6.30;;;2.30;;
76727;SDS011;65652;53.132;18.026;2023-05-09T11:00:56;6.30;;;2.20;;
76727;SDS011;65652;53.132;18.026;2023-05-09T11:03:24;6.40;;;2.10;;
76727;SDS011;65652;53.132;18.026;2023-05-09T11:05:53;5.70;;;2.00;;
76727;SDS011;65652;53.132;18.026;2023-05-09T11:08:28;5.00;;;2.00;;
76727;SDS011;65652;53.132;18.026;2023-05-09T11:11:07;8.70;;;2.60;;
76727;SDS011;65652;53.132;18.026;2023-05-09T11:13:53;4.30;;;2.10;;
76727;SDS011;65652;53.132;18.026;2023-05-09T11:16:25;5.30;;;2.30;;
76727;SDS011;65652;53.132;18.026;2023-05-09T11:18:51;4.00;;;1.80;;
76727;SDS011;65652;53.132;18.026;2023-05-09T11:21:19;4.30;;;1.90;;
76727;SDS011;65652;53.132;18.026;2023-05-09T11:26:13;5.30;;;2.00;;
76727;SDS011;65652;53.132;18.026;2023-05-09T11:28:40;5.60;;;2.30;;
76727;SDS011;65652;53.132;18.026;2023-05-09T11:33:38;5.40;;;2.00;;
76727;SDS011;65652;53.132;18.026;2023-05-09T11:36:18;6.30;;;1.90;;
76727;SDS011;65652;53.132;18.026;2023-05-09T11:39:05;7.10;;;1.90;;
76727;SDS011;65652;53.132;18.026;2023-05-09T11:41:44;6.00;;;2.10;;
76727;SDS011;65652;53.132;18.026;2023-05-09T11:44:13;8.80;;;2.30;;
76727;SDS011;65652;53.132;18.026;2023-05-09T11:46:44;5.80;;;2.50;;
76727;SDS011;65652;53.132;18.026;2023-05-09T11:49:13;6.10;;;1.80;;
76727;SDS011;65652;53.132;18.026;2023-05-09T11:51:40;5.60;;;2.20;;
76727;SDS011;65652;53.132;18.026;2023-05-09T11:54:08;5.00;;;2.40;;
76727;SDS011;65652;53.132;18.026;2023-05-09T11:56:37;6.80;;;2.60;;
76727;SDS011;65652;53.132;18.026;2023-05-09T11:59:05;5.20;;;2.50;;
76727;SDS011;65652;53.132;18.026;2023-05-09T12:01:33;4.60;;;2.10;;
76727;SDS011;65652;53.132;18.026;2023-05-09T12:04:01;6.90;;;2.10;;
76727;SDS011;65652;53.132;18.026;2023-05-09T12:06:28;11.50;;;2.20;;
76727;SDS011;65652;53.132;18.026;2023-05-09T12:08:55;4.80;;;2.00;;
76727;SDS011;65652;53.132;18.026;2023-05-09T12:11:23;5.20;;;2.10;;
76727;SDS011;65652;53.132;18.026;2023-05-09T12:13:50;5.50;;;2.20;;
76727;SDS011;65652;53.132;18.026;2023-05-09T12:16:18;5.80;;;2.40;;
76727;SDS011;65652;53.132;18.026;2023-05-09T12:18:47;8.00;;;2.30;;
76727;SDS011;65652;53.132;18.026;2023-05-09T12:21:15;6.00;;;2.30;;
76727;SDS011;65652;53.132;18.026;2023-05-09T12:23:43;5.00;;;2.00;;
76727;SDS011;65652;53.132;18.026;2023-05-09T12:26:11;4.90;;;2.70;;
76727;SDS011;65652;53.132;18.026;2023-05-09T12:31:06;4.70;;;1.80;;
76727;SDS011;65652;53.132;18.026;2023-05-09T12:36:08;5.50;;;2.20;;
76727;SDS011;65652;53.132;18.026;2023-05-09T12:38:37;4.90;;;1.90;;
76727;SDS011;65652;53.132;18.026;2023-05-09T12:41:05;6.70;;;2.00;;
76727;SDS011;65652;53.132;18.026;2023-05-09T12:43:33;6.20;;;2.70;;
76727;SDS011;65652;53.132;18.026;2023-05-09T12:46:02;5.50;;;2.20;;
76727;SDS011;65652;53.132;18.026;2023-05-09T12:48:33;5.90;;;2.10;;
76727;SDS011;65652;53.132;18.026;2023-05-09T12:51:06;5.00;;;2.10;;
76727;SDS011;65652;53.132;18.026;2023-05-09T12:53:40;6.10;;;2.30;;
76727;SDS011;65652;53.132;18.026;2023-05-09T12:56:14;5.70;;;2.40;;
76727;SDS011;65652;53.132;18.026;2023-05-09T12:58:51;5.20;;;2.20;;
76727;SDS011;65652;53.132;18.026;2023-05-09T13:01:26;5.90;;;2.60;;
76727;SDS011;65652;53.132;18.026;2023-05-09T13:04:00;5.40;;;2.30;;
76727;SDS011;65652;53.132;18.026;2023-05-09T13:06:29;6.70;;;2.30;;
76727;SDS011;65652;53.132;18.026;2023-05-09T13:08:56;4.50;;;1.90;;
76727;SDS011;65652;53.132;18.026;2023-05-09T13:11:28;5.80;;;2.20;;
76727;SDS011;65652;53.132;18.026;2023-05-09T13:16:22;4.90;;;2.30;;
76727;SDS011;65652;53.132;18.026;2023-05-09T13:18:49;4.50;;;1.80;;
76727;SDS011;65652;53.132;18.026;2023-05-09T13:21:16;7.10;;;2.30;;
76727;SDS011;65652;53.132;18.026;2023-05-09T13:23:43;5.50;;;2.20;;
76727;SDS011;65652;53.132;18.026;2023-05-09T13:26:10;6.20;;;2.40;;
76727;SDS011;65652;53.132;18.026;2023-05-09T13:28:37;5.80;;;2.40;;
76727;SDS011;65652;53.132;18.026;2023-05-09T13:31:04;5.10;;;2.20;;
76727;SDS011;65652;53.132;18.026;2023-05-09T13:33:32;5.20;;;2.60;;
76727;SDS011;65652;53.132;18.026;2023-05-09T13:35:59;7.20;;;2.40;;
76727;SDS011;65652;53.132;18.026;2023-05-09T13:38:26;4.70;;;2.50;;
76727;SDS011;65652;53.132;18.026;2023-05-09T13:40:56;5.80;;;2.40;;
76727;SDS011;65652;53.132;18.026;2023-05-09T13:45:50;5.50;;;1.70;;
76727;SDS011;65652;53.132;18.026;2023-05-09T13:48:17;4.70;;;2.10;;
76727;SDS011;65652;53.132;18.026;2023-05-09T13:50:44;4.60;;;2.40;;
76727;SDS011;65652;53.132;18.026;2023-05-09T13:53:12;6.60;;;2.20;;
76727;SDS011;65652;53.132;18.026;2023-05-09T13:55:38;6.20;;;2.40;;
76727;SDS011;65652;53.132;18.026;2023-05-09T13:58:05;5.80;;;2.40;;
76727;SDS011;65652;53.132;18.026;2023-05-09T14:03:02;6.40;;;2.20;;
76727;SDS011;65652;53.132;18.026;2023-05-09T14:05:30;5.20;;;2.20;;
76727;SDS011;65652;53.132;18.026;2023-05-09T14:07:57;5.10;;;2.30;;
76727;SDS011;65652;53.132;18.026;2023-05-09T14:10:24;7.80;;;2.70;;
76727;SDS011;65652;53.132;18.026;2023-05-09T14:12:52;4.40;;;2.00;;
76727;SDS011;65652;53.132;18.026;2023-05-09T14:15:19;6.00;;;2.30;;
76727;SDS011;65652;53.132;18.026;2023-05-09T14:17:46;6.60;;;2.10;;
76727;SDS011;65652;53.132;18.026;2023-05-09T14:20:13;6.00;;;2.10;;
76727;SDS011;65652;53.132;18.026;2023-05-09T14:22:41;4.70;;;2.30;;
76727;SDS011;65652;53.132;18.026;2023-05-09T14:25:08;5.40;;;2.30;;
76727;SDS011;65652;53.132;18.026;2023-05-09T14:27:35;5.70;;;2.20;;
76727;SDS011;65652;53.132;18.026;2023-05-09T14:30:02;6.40;;;2.50;;
76727;SDS011;65652;53.132;18.026;2023-05-09T14:32:30;4.90;;;1.90;;
76727;SDS011;65652;53.132;18.026;2023-05-09T14:34:58;4.20;;;2.20;;
76727;SDS011;65652;53.132;18.026;2023-05-09T14:37:25;6.10;;;2.40;;
76727;SDS011;65652;53.132;18.026;2023-05-09T14:39:51;8.00;;;2.40;;
76727;SDS011;65652;53.132;18.026;2023-05-09T14:42:18;5.00;;;2.20;;
76727;SDS011;65652;53.132;18.026;2023-05-09T14:44:45;5.20;;;2.20;;
76727;SDS011;65652;53.132;18.026;2023-05-09T14:47:12;7.30;;;2.50;;
76727;SDS011;65652;53.132;18.026;2023-05-09T14:49:39;5.70;;;2.00;;
76727;SDS011;65652;53.132;18.026;2023-05-09T14:52:06;5.30;;;2.40;;
76727;SDS011;65652;53.132;18.026;2023-05-09T14:54:33;5.50;;;2.40;;
76727;SDS011;65652;53.132;18.026;2023-05-09T14:57:00;7.30;;;2.40;;
76727;SDS011;65652;53.132;18.026;2023-05-09T14:59:29;5.40;;;2.30;;
76727;SDS011;65652;53.132;18.026;2023-05-09T15:01:56;4.90;;;2.40;;
76727;SDS011;65652;53.132;18.026;2023-05-09T15:04:23;8.20;;;2.20;;
76727;SDS011;65652;53.132;18.026;2023-05-09T15:06:53;5.10;;;2.30;;
76727;SDS011;65652;53.132;18.026;2023-05-09T15:09:20;6.80;;;2.30;;
76727;SDS011;65652;53.132;18.026;2023-05-09T15:11:47;4.80;;;2.20;;
76727;SDS011;65652;53.132;18.026;2023-05-09T15:14:14;6.00;;;2.20;;